sensor_id;sensor_type;location;lat;lon;timestamp;pressure;altitude;pressure_sealevel;temperature;humidity
11888;BME280;6003;42.756;23.130;2023-01-23T00:01:21;154045.28;;;6.36;100.00
11888;BME280;6003;42.756;23.130;2023-01-23T00:03:49;154047.94;;;6.37;100.00
11888;BME280;6003;42.756;23.130;2023-01-23T00:06:18;154046.63;;;6.36;100.00
11888;BME280;6003;42.756;23.130;2023-01-23T00:08:45;154046.63;;;6.36;100.00
11888;BME280;6003;42.756;23.130;2023-01-23T00:11:15;154050.56;;;6.38;100.00
11888;BME280;6003;42.756;23.130;2023-01-23T00:13:42;154045.28;;;6.36;100.00
11888;BME280;6003;42.756;23.130;2023-01-23T00:16:12;154045.28;;;6.36;100.00
11888;BME280;6003;42.756;23.130;2023-01-23T00:18:40;154069.03;;;6.45;100.00
11888;BME280;6003;42.756;23.130;2023-01-23T00:21:09;154071.66;;;6.46;100.00
11888;BME280;6003;42.756;23.130;2023-01-23T00:23:41;154087.44;;;6.52;100.00
11888;BME280;6003;42.756;23.130;2023-01-23T00:26:11;154092.72;;;6.54;100.00
11888;BME280;6003;42.756;23.130;2023-01-23T00:28:40;154105.91;;;6.59;100.00
11888;BME280;6003;42.756;23.130;2023-01-23T00:31:08;154112.47;;;6.62;100.00
11888;BME280;6003;42.756;23.130;2023-01-23T00:33:37;154100.63;;;6.57;100.00
11888;BME280;6003;42.756;23.130;2023-01-23T00:36:04;154113.81;;;6.62;100.00
11888;BME280;6003;42.756;23.130;2023-01-23T00:38:31;154119.06;;;6.64;100.00
11888;BME280;6003;42.756;23.130;2023-01-23T00:41:00;154116.44;;;6.63;100.00
11888;BME280;6003;42.756;23.130;2023-01-23T00:43:27;154113.81;;;6.62;100.00
11888;BME280;6003;42.756;23.130;2023-01-23T00:45:54;154119.06;;;6.64;100.00
11888;BME280;6003;42.756;23.130;2023-01-23T00:48:21;154126.97;;;6.67;100.00
11888;BME280;6003;42.756;23.130;2023-01-23T00:50:48;154133.56;;;6.70;100.00
11888;BME280;6003;42.756;23.130;2023-01-23T00:53:15;154125.66;;;6.67;100.00
11888;BME280;6003;42.756;23.130;2023-01-23T00:55:42;154119.06;;;6.64;100.00
11888;BME280;6003;42.756;23.130;2023-01-23T00:58:10;154117.75;;;6.64;100.00
11888;BME280;6003;42.756;23.130;2023-01-23T01:00:38;154098.03;;;6.56;100.00
11888;BME280;6003;42.756;23.130;2023-01-23T01:03:05;154094.03;;;6.54;100.00
11888;BME280;6003;42.756;23.130;2023-01-23T01:05:33;154087.44;;;6.52;100.00
11888;BME280;6003;42.756;23.130;2023-01-23T01:08:00;154079.53;;;6.49;100.00
11888;BME280;6003;42.756;23.130;2023-01-23T01:10:28;154066.34;;;6.44;100.00
11888;BME280;6003;42.756;23.130;2023-01-23T01:12:58;154062.44;;;6.42;100.00
11888;BME280;6003;42.756;23.130;2023-01-23T01:15:27;154045.28;;;6.36;100.00
11888;BME280;6003;42.756;23.130;2023-01-23T01:17:54;154043.97;;;6.35;100.00
11888;BME280;6003;42.756;23.130;2023-01-23T01:20:21;154041.34;;;6.34;100.00
11888;BME280;6003;42.756;23.130;2023-01-23T01:22:50;154013.69;;;6.23;100.00
11888;BME280;6003;42.756;23.130;2023-01-23T01:25:17;154016.34;;;6.24;100.00
11888;BME280;6003;42.756;23.130;2023-01-23T01:27:44;153983.38;;;6.12;100.00
11888;BME280;6003;42.756;23.130;2023-01-23T01:30:12;153974.19;;;6.08;100.00
11888;BME280;6003;42.756;23.130;2023-01-23T01:32:42;153953.09;;;6.00;100.00
11888;BME280;6003;42.756;23.130;2023-01-23T01:35:10;153951.78;;;5.99;100.00
11888;BME280;6003;42.756;23.130;2023-01-23T01:40:51;153972.88;;;6.07;100.00
11888;BME280;6003;42.756;23.130;2023-01-23T01:43:20;153987.38;;;6.13;100.00
11888;BME280;6003;42.756;23.130;2023-01-23T01:49:13;154020.25;;;6.26;100.00
11888;BME280;6003;42.756;23.130;2023-01-23T01:51:45;154042.66;;;6.35;100.00
11888;BME280;6003;42.756;23.130;2023-01-23T01:54:20;154053.19;;;6.39;100.00
11888;BME280;6003;42.756;23.130;2023-01-23T01:56:58;154055.84;;;6.40;100.00
11888;BME280;6003;42.756;23.130;2023-01-23T01:59:31;154074.25;;;6.47;100.00
11888;BME280;6003;42.756;23.130;2023-01-23T02:02:03;154098.03;;;6.56;100.00
11888;BME280;6003;42.756;23.130;2023-01-23T02:04:36;154092.72;;;6.54;100.00
11888;BME280;6003;42.756;23.130;2023-01-23T02:07:07;154103.25;;;6.58;100.00
11888;BME280;6003;42.756;23.130;2023-01-23T02:09:34;154111.16;;;6.61;100.00
11888;BME280;6003;42.756;23.130;2023-01-23T02:12:01;154108.53;;;6.60;100.00
11888;BME280;6003;42.756;23.130;2023-01-23T02:14:29;154108.53;;;6.60;100.00
11888;BME280;6003;42.756;23.130;2023-01-23T02:16:56;154121.72;;;6.65;100.00
11888;BME280;6003;42.756;23.130;2023-01-23T02:19:38;154117.75;;;6.64;100.00
11888;BME280;6003;42.756;23.130;2023-01-23T02:22:22;154146.75;;;6.75;100.00
11888;BME280;6003;42.756;23.130;2023-01-23T02:24:57;154161.25;;;6.81;100.00
11888;BME280;6003;42.756;23.130;2023-01-23T02:27:27;154179.72;;;6.88;100.00
11888;BME280;6003;42.756;23.130;2023-01-23T02:29:54;154190.22;;;6.92;100.00
11888;BME280;6003;42.756;23.130;2023-01-23T02:32:22;154194.22;;;6.93;100.00
11888;BME280;6003;42.756;23.130;2023-01-23T02:34:50;154192.84;;;6.93;100.00
11888;BME280;6003;42.756;23.130;2023-01-23T02:37:17;154199.44;;;6.95;100.00
11888;BME280;6003;42.756;23.130;2023-01-23T02:39:45;154208.66;;;6.99;100.00
11888;BME280;6003;42.756;23.130;2023-01-23T02:42:13;154208.66;;;6.99;100.00
11888;BME280;6003;42.756;23.130;2023-01-23T02:44:41;154208.66;;;6.99;100.00
11888;BME280;6003;42.756;23.130;2023-01-23T02:47:08;154217.94;;;7.03;100.00
11888;BME280;6003;42.756;23.130;2023-01-23T02:49:37;154221.84;;;7.04;100.00
11888;BME280;6003;42.756;23.130;2023-01-23T02:52:04;154224.53;;;7.05;100.00
11888;BME280;6003;42.756;23.130;2023-01-23T02:54:31;154224.53;;;7.05;100.00
11888;BME280;6003;42.756;23.130;2023-01-23T02:56:58;154232.44;;;7.08;100.00
11888;BME280;6003;42.756;23.130;2023-01-23T02:59:25;154229.75;;;7.07;100.00
11888;BME280;6003;42.756;23.130;2023-01-23T03:02:11;154211.34;;;7.00;100.00
11888;BME280;6003;42.756;23.130;2023-01-23T03:04:38;154195.53;;;6.94;100.00
11888;BME280;6003;42.756;23.130;2023-01-23T03:07:32;154202.13;;;6.96;100.00
11888;BME280;6003;42.756;23.130;2023-01-23T03:10:00;154200.75;;;6.96;100.00
11888;BME280;6003;42.756;23.130;2023-01-23T03:12:27;154196.84;;;6.94;100.00
11888;BME280;6003;42.756;23.130;2023-01-23T03:14:54;154198.13;;;6.95;100.00
11888;BME280;6003;42.756;23.130;2023-01-23T03:17:23;154200.75;;;6.96;100.00
11888;BME280;6003;42.756;23.130;2023-01-23T03:19:50;154191.53;;;6.92;100.00
11888;BME280;6003;42.756;23.130;2023-01-23T03:22:17;154175.72;;;6.86;100.00
11888;BME280;6003;42.756;23.130;2023-01-23T03:24:44;154166.53;;;6.83;100.00
11888;BME280;6003;42.756;23.130;2023-01-23T03:27:11;154159.94;;;6.80;100.00
11888;BME280;6003;42.756;23.130;2023-01-23T03:29:39;154158.63;;;6.80;100.00
11888;BME280;6003;42.756;23.130;2023-01-23T03:32:24;154148.06;;;6.75;100.00
11888;BME280;6003;42.756;23.130;2023-01-23T03:34:51;154163.84;;;6.82;100.00
11888;BME280;6003;42.756;23.130;2023-01-23T03:37:45;154161.25;;;6.81;100.00
11888;BME280;6003;42.756;23.130;2023-01-23T03:40:15;154158.63;;;6.80;100.00
11888;BME280;6003;42.756;23.130;2023-01-23T03:43:00;154161.25;;;6.81;100.00
11888;BME280;6003;42.756;23.130;2023-01-23T03:45:27;154150.72;;;6.76;100.00
11888;BME280;6003;42.756;23.130;2023-01-23T03:47:55;154155.94;;;6.78;100.00
11888;BME280;6003;42.756;23.130;2023-01-23T03:50:22;154150.72;;;6.76;100.00
11888;BME280;6003;42.756;23.130;2023-01-23T03:52:49;154165.22;;;6.82;100.00
11888;BME280;6003;42.756;23.130;2023-01-23T03:55:16;154162.56;;;6.81;100.00
11888;BME280;6003;42.756;23.130;2023-01-23T03:57:43;154162.56;;;6.81;100.00
11888;BME280;6003;42.756;23.130;2023-01-23T04:00:11;154163.84;;;6.82;100.00
11888;BME280;6003;42.756;23.130;2023-01-23T04:02:41;154166.53;;;6.83;100.00
11888;BME280;6003;42.756;23.130;2023-01-23T04:05:09;154163.84;;;6.82;100.00
11888;BME280;6003;42.756;23.130;2023-01-23T04:07:36;154153.34;;;6.77;100.00
11888;BME280;6003;42.756;23.130;2023-01-23T04:10:03;154145.44;;;6.74;100.00
11888;BME280;6003;42.756;23.130;2023-01-23T04:12:30;154133.56;;;6.70;100.00
11888;BME280;6003;42.756;23.130;2023-01-23T04:14:57;154129.63;;;6.68;100.00
11888;BME280;6003;42.756;23.130;2023-01-23T04:17:24;154121.72;;;6.65;100.00
11888;BME280;6003;42.756;23.130;2023-01-23T04:19:51;154124.34;;;6.66;100.00
11888;BME280;6003;42.756;23.130;2023-01-23T04:22:20;154117.75;;;6.64;100.00
11888;BME280;6003;42.756;23.130;2023-01-23T04:24:46;154134.91;;;6.70;100.00
11888;BME280;6003;42.756;23.130;2023-01-23T04:27:13;154132.25;;;6.69;100.00
11888;BME280;6003;42.756;23.130;2023-01-23T04:29:40;154126.97;;;6.67;100.00
11888;BME280;6003;42.756;23.130;2023-01-23T04:32:07;154123.03;;;6.66;100.00
11888;BME280;6003;42.756;23.130;2023-01-23T04:34:34;154124.34;;;6.66;100.00
11888;BME280;6003;42.756;23.130;2023-01-23T04:37:01;154124.34;;;6.66;100.00
11888;BME280;6003;42.756;23.130;2023-01-23T04:39:29;154116.44;;;6.63;100.00
11888;BME280;6003;42.756;23.130;2023-01-23T04:41:56;154100.63;;;6.57;100.00
11888;BME280;6003;42.756;23.130;2023-01-23T04:44:24;154113.81;;;6.62;100.00
11888;BME280;6003;42.756;23.130;2023-01-23T04:46:52;154115.13;;;6.63;100.00
11888;BME280;6003;42.756;23.130;2023-01-23T04:49:19;154125.66;;;6.67;100.00
11888;BME280;6003;42.756;23.130;2023-01-23T04:51:47;154121.72;;;6.65;100.00
11888;BME280;6003;42.756;23.130;2023-01-23T04:54:15;154124.34;;;6.66;100.00
11888;BME280;6003;42.756;23.130;2023-01-23T04:56:44;154123.03;;;6.66;100.00
11888;BME280;6003;42.756;23.130;2023-01-23T04:59:12;154119.06;;;6.64;100.00
11888;BME280;6003;42.756;23.130;2023-01-23T05:01:40;154119.06;;;6.64;100.00
11888;BME280;6003;42.756;23.130;2023-01-23T05:04:07;154120.41;;;6.65;100.00
11888;BME280;6003;42.756;23.130;2023-01-23T05:06:34;154134.91;;;6.70;100.00
11888;BME280;6003;42.756;23.130;2023-01-23T05:09:01;154137.53;;;6.71;100.00
11888;BME280;6003;42.756;23.130;2023-01-23T05:11:29;154126.97;;;6.67;100.00
11888;BME280;6003;42.756;23.130;2023-01-23T05:13:57;154130.94;;;6.69;100.00
11888;BME280;6003;42.756;23.130;2023-01-23T05:16:24;154126.97;;;6.67;100.00
11888;BME280;6003;42.756;23.130;2023-01-23T05:18:51;154116.44;;;6.63;100.00
11888;BME280;6003;42.756;23.130;2023-01-23T05:21:18;154107.22;;;6.60;100.00
11888;BME280;6003;42.756;23.130;2023-01-23T05:23:44;154109.84;;;6.61;100.00
11888;BME280;6003;42.756;23.130;2023-01-23T05:26:11;154112.47;;;6.62;100.00
11888;BME280;6003;42.756;23.130;2023-01-23T05:28:38;154100.63;;;6.57;100.00
11888;BME280;6003;42.756;23.130;2023-01-23T05:31:06;154104.56;;;6.59;100.00
11888;BME280;6003;42.756;23.130;2023-01-23T05:33:33;154103.25;;;6.58;100.00
11888;BME280;6003;42.756;23.130;2023-01-23T05:36:00;154095.34;;;6.55;100.00
11888;BME280;6003;42.756;23.130;2023-01-23T05:38:27;154079.53;;;6.49;100.00
11888;BME280;6003;42.756;23.130;2023-01-23T05:40:54;154099.31;;;6.57;100.00
11888;BME280;6003;42.756;23.130;2023-01-23T05:43:21;154090.06;;;6.53;100.00
11888;BME280;6003;42.756;23.130;2023-01-23T05:45:48;154082.16;;;6.50;100.00
11888;BME280;6003;42.756;23.130;2023-01-23T05:48:16;154101.94;;;6.58;100.00
11888;BME280;6003;42.756;23.130;2023-01-23T05:50:43;154109.84;;;6.61;100.00
11888;BME280;6003;42.756;23.130;2023-01-23T05:53:10;154112.47;;;6.62;100.00
11888;BME280;6003;42.756;23.130;2023-01-23T05:55:37;154105.91;;;6.59;100.00
11888;BME280;6003;42.756;23.130;2023-01-23T05:58:03;154105.91;;;6.59;100.00
11888;BME280;6003;42.756;23.130;2023-01-23T06:00:30;154109.84;;;6.61;100.00
11888;BME280;6003;42.756;23.130;2023-01-23T06:02:57;154103.25;;;6.58;100.00
11888;BME280;6003;42.756;23.130;2023-01-23T06:05:26;154109.84;;;6.61;100.00
11888;BME280;6003;42.756;23.130;2023-01-23T06:07:53;154111.16;;;6.61;100.00
11888;BME280;6003;42.756;23.130;2023-01-23T06:10:20;154094.03;;;6.54;100.00
11888;BME280;6003;42.756;23.130;2023-01-23T06:12:47;154108.53;;;6.60;100.00
11888;BME280;6003;42.756;23.130;2023-01-23T06:15:14;154111.16;;;6.61;100.00
11888;BME280;6003;42.756;23.130;2023-01-23T06:17:41;154099.31;;;6.57;100.00
11888;BME280;6003;42.756;23.130;2023-01-23T06:20:09;154116.44;;;6.63;100.00
11888;BME280;6003;42.756;23.130;2023-01-23T06:22:38;154108.53;;;6.60;100.00
11888;BME280;6003;42.756;23.130;2023-01-23T06:25:05;154088.75;;;6.52;100.00
11888;BME280;6003;42.756;23.130;2023-01-23T06:27:33;154076.94;;;6.48;100.00
11888;BME280;6003;42.756;23.130;2023-01-23T06:29:59;154066.34;;;6.44;100.00
11888;BME280;6003;42.756;23.130;2023-01-23T06:32:26;154079.53;;;6.49;100.00
11888;BME280;6003;42.756;23.130;2023-01-23T06:34:53;154095.34;;;6.55;100.00
11888;BME280;6003;42.756;23.130;2023-01-23T06:37:20;154113.81;;;6.62;100.00
11888;BME280;6003;42.756;23.130;2023-01-23T06:39:48;154129.63;;;6.68;100.00
11888;BME280;6003;42.756;23.130;2023-01-23T06:42:16;154124.34;;;6.66;100.00
11888;BME280;6003;42.756;23.130;2023-01-23T06:44:42;154105.91;;;6.59;100.00
11888;BME280;6003;42.756;23.130;2023-01-23T06:47:09;154113.81;;;6.62;100.00
11888;BME280;6003;42.756;23.130;2023-01-23T06:49:36;154103.25;;;6.58;100.00
11888;BME280;6003;42.756;23.130;2023-01-23T06:52:03;154098.03;;;6.56;100.00
11888;BME280;6003;42.756;23.130;2023-01-23T06:54:30;154100.63;;;6.57;100.00
11888;BME280;6003;42.756;23.130;2023-01-23T06:56:58;154105.91;;;6.59;100.00
11888;BME280;6003;42.756;23.130;2023-01-23T06:59:25;154124.34;;;6.66;100.00
11888;BME280;6003;42.756;23.130;2023-01-23T07:01:53;154113.81;;;6.62;100.00
11888;BME280;6003;42.756;23.130;2023-01-23T07:04:19;154105.91;;;6.59;100.00
11888;BME280;6003;42.756;23.130;2023-01-23T07:06:46;154098.03;;;6.56;100.00
11888;BME280;6003;42.756;23.130;2023-01-23T07:09:13;154092.72;;;6.54;100.00
11888;BME280;6003;42.756;23.130;2023-01-23T07:11:40;154071.66;;;6.46;100.00
11888;BME280;6003;42.756;23.130;2023-01-23T07:14:08;154066.34;;;6.44;100.00
11888;BME280;6003;42.756;23.130;2023-01-23T07:16:35;154071.66;;;6.46;100.00
11888;BME280;6003;42.756;23.130;2023-01-23T07:19:02;154059.78;;;6.41;100.00
11888;BME280;6003;42.756;23.130;2023-01-23T07:21:30;154038.72;;;6.33;100.00
11888;BME280;6003;42.756;23.130;2023-01-23T07:23:56;154053.19;;;6.39;100.00
11888;BME280;6003;42.756;23.130;2023-01-23T07:26:23;154041.34;;;6.34;100.00
11888;BME280;6003;42.756;23.130;2023-01-23T07:28:50;154032.16;;;6.30;100.00
11888;BME280;6003;42.756;23.130;2023-01-23T07:31:19;153999.19;;;6.18;100.00
11888;BME280;6003;42.756;23.130;2023-01-23T07:33:46;154025.56;;;6.28;100.00
11888;BME280;6003;42.756;23.130;2023-01-23T07:36:13;154029.47;;;6.29;100.00
11888;BME280;6003;42.756;23.130;2023-01-23T07:38:40;154036.06;;;6.32;100.00
11888;BME280;6003;42.756;23.130;2023-01-23T07:41:07;154017.66;;;6.25;100.00
11888;BME280;6003;42.756;23.130;2023-01-23T07:43:34;153993.91;;;6.16;100.00
11888;BME280;6003;42.756;23.130;2023-01-23T07:46:01;153976.78;;;6.09;100.00
11888;BME280;6003;42.756;23.130;2023-01-23T07:48:30;153975.50;;;6.08;100.00
11888;BME280;6003;42.756;23.130;2023-01-23T07:51:00;153962.31;;;6.03;100.00
11888;BME280;6003;42.756;23.130;2023-01-23T07:53:27;153957.06;;;6.01;100.00
11888;BME280;6003;42.756;23.130;2023-01-23T07:55:54;153961.00;;;6.03;100.00
11888;BME280;6003;42.756;23.130;2023-01-23T07:58:20;153968.91;;;6.06;100.00
11888;BME280;6003;42.756;23.130;2023-01-23T08:00:47;153938.63;;;5.94;100.00
11888;BME280;6003;42.756;23.130;2023-01-23T08:03:14;153918.78;;;5.86;100.00
11888;BME280;6003;42.756;23.130;2023-01-23T08:05:47;153928.06;;;5.90;100.00
11888;BME280;6003;42.756;23.130;2023-01-23T08:08:14;153921.47;;;5.87;100.00
11888;BME280;6003;42.756;23.130;2023-01-23T08:10:41;153929.34;;;5.91;100.00
11888;BME280;6003;42.756;23.130;2023-01-23T08:13:08;153921.47;;;5.87;100.00
11888;BME280;6003;42.756;23.130;2023-01-23T08:15:35;153924.06;;;5.88;100.00
11888;BME280;6003;42.756;23.130;2023-01-23T08:18:03;153914.88;;;5.85;100.00
11888;BME280;6003;42.756;23.130;2023-01-23T08:20:30;153924.06;;;5.88;100.00
11888;BME280;6003;42.756;23.130;2023-01-23T08:22:58;153947.81;;;5.98;100.00
11888;BME280;6003;42.756;23.130;2023-01-23T08:25:26;153939.91;;;5.95;100.00
11888;BME280;6003;42.756;23.130;2023-01-23T08:27:53;153929.34;;;5.91;100.00
11888;BME280;6003;42.756;23.130;2023-01-23T08:30:20;153918.78;;;5.86;100.00
11888;BME280;6003;42.756;23.130;2023-01-23T08:32:48;153900.38;;;5.79;100.00
11888;BME280;6003;42.756;23.130;2023-01-23T08:35:15;153920.16;;;5.87;100.00
11888;BME280;6003;42.756;23.130;2023-01-23T08:37:42;153929.34;;;5.91;100.00
11888;BME280;6003;42.756;23.130;2023-01-23T08:40:12;153939.91;;;5.95;100.00
11888;BME280;6003;42.756;23.130;2023-01-23T08:42:39;153931.97;;;5.92;100.00
11888;BME280;6003;42.756;23.130;2023-01-23T08:45:07;153949.13;;;5.98;100.00
11888;BME280;6003;42.756;23.130;2023-01-23T08:47:34;153933.28;;;5.92;100.00
11888;BME280;6003;42.756;23.130;2023-01-23T08:50:03;153945.19;;;5.97;100.00
11888;BME280;6003;42.756;23.130;2023-01-23T08:52:30;153955.72;;;6.01;100.00
11888;BME280;6003;42.756;23.130;2023-01-23T08:54:59;153966.28;;;6.05;100.00
11888;BME280;6003;42.756;23.130;2023-01-23T08:57:27;153963.63;;;6.04;100.00
11888;BME280;6003;42.756;23.130;2023-01-23T08:59:54;153979.47;;;6.10;100.00
11888;BME280;6003;42.756;23.130;2023-01-23T09:02:21;153987.38;;;6.13;100.00
11888;BME280;6003;42.756;23.130;2023-01-23T09:04:48;153991.28;;;6.15;100.00
11888;BME280;6003;42.756;23.130;2023-01-23T09:07:15;153995.25;;;6.16;100.00
11888;BME280;6003;42.756;23.130;2023-01-23T09:09:42;154003.16;;;6.19;100.00
11888;BME280;6003;42.756;23.130;2023-01-23T09:12:09;154025.56;;;6.28;100.00
11888;BME280;6003;42.756;23.130;2023-01-23T09:14:37;154014.97;;;6.24;100.00
11888;BME280;6003;42.756;23.130;2023-01-23T09:17:05;154012.38;;;6.23;100.00
11888;BME280;6003;42.756;23.130;2023-01-23T09:19:32;154001.84;;;6.19;100.00
11888;BME280;6003;42.756;23.130;2023-01-23T09:21:58;154028.16;;;6.29;100.00
11888;BME280;6003;42.756;23.130;2023-01-23T09:24:25;154040.03;;;6.33;100.00
11888;BME280;6003;42.756;23.130;2023-01-23T09:26:52;154051.88;;;6.38;100.00
11888;BME280;6003;42.756;23.130;2023-01-23T09:29:19;154069.03;;;6.45;100.00
11888;BME280;6003;42.756;23.130;2023-01-23T09:31:47;154055.84;;;6.40;100.00
11888;BME280;6003;42.756;23.130;2023-01-23T09:34:14;154092.72;;;6.54;100.00
11888;BME280;6003;42.756;23.130;2023-01-23T09:40:17;154100.63;;;6.57;100.00
11888;BME280;6003;42.756;23.130;2023-01-23T09:42:46;154109.84;;;6.61;100.00
11888;BME280;6003;42.756;23.130;2023-01-23T09:45:18;154113.81;;;6.62;100.00
11888;BME280;6003;42.756;23.130;2023-01-23T09:47:52;154138.84;;;6.72;100.00
11888;BME280;6003;42.756;23.130;2023-01-23T09:50:22;154132.25;;;6.69;100.00
11888;BME280;6003;42.756;23.130;2023-01-23T09:52:54;154138.84;;;6.72;100.00
11888;BME280;6003;42.756;23.130;2023-01-23T09:55:33;154119.06;;;6.64;100.00
11888;BME280;6003;42.756;23.130;2023-01-23T09:58:05;154121.72;;;6.65;100.00
11888;BME280;6003;42.756;23.130;2023-01-23T10:00:37;154084.84;;;6.51;100.00
11888;BME280;6003;42.756;23.130;2023-01-23T10:03:10;154070.34;;;6.45;100.00
11888;BME280;6003;42.756;23.130;2023-01-23T10:05:45;154074.25;;;6.47;100.00
11888;BME280;6003;42.756;23.130;2023-01-23T10:08:20;154049.25;;;6.37;100.00
11888;BME280;6003;42.756;23.130;2023-01-23T10:10:57;154069.03;;;6.45;100.00
11888;BME280;6003;42.756;23.130;2023-01-23T10:13:34;154079.53;;;6.49;100.00
11888;BME280;6003;42.756;23.130;2023-01-23T10:16:21;154092.72;;;6.54;100.00
11888;BME280;6003;42.756;23.130;2023-01-23T10:19:04;154140.16;;;6.72;100.00
11888;BME280;6003;42.756;23.130;2023-01-23T10:21:39;154130.94;;;6.69;100.00
11888;BME280;6003;42.756;23.130;2023-01-23T10:24:19;154112.47;;;6.62;100.00
11888;BME280;6003;42.756;23.130;2023-01-23T10:26:52;154142.81;;;6.73;100.00
11888;BME280;6003;42.756;23.130;2023-01-23T10:29:29;154166.53;;;6.83;100.00
11888;BME280;6003;42.756;23.130;2023-01-23T10:31:58;154155.94;;;6.78;100.00
11888;BME280;6003;42.756;23.130;2023-01-23T10:34:33;154179.72;;;6.88;100.00
11888;BME280;6003;42.756;23.130;2023-01-23T10:37:10;154195.53;;;6.94;100.00
11888;BME280;6003;42.756;23.130;2023-01-23T10:39:46;154174.44;;;6.86;100.00
11888;BME280;6003;42.756;23.130;2023-01-23T10:42:18;154182.34;;;6.89;100.00
11888;BME280;6003;42.756;23.130;2023-01-23T10:44:47;154165.22;;;6.82;100.00
11888;BME280;6003;42.756;23.130;2023-01-23T10:47:18;154134.91;;;6.70;100.00
11888;BME280;6003;42.756;23.130;2023-01-23T10:49:48;154126.97;;;6.67;100.00
11888;BME280;6003;42.756;23.130;2023-01-23T10:52:33;154138.84;;;6.72;100.00
11888;BME280;6003;42.756;23.130;2023-01-23T10:55:01;154126.97;;;6.67;100.00
11888;BME280;6003;42.756;23.130;2023-01-23T10:57:29;154126.97;;;6.67;100.00
11888;BME280;6003;42.756;23.130;2023-01-23T11:00:05;154158.63;;;6.80;100.00
11888;BME280;6003;42.756;23.130;2023-01-23T11:02:34;154142.81;;;6.73;100.00
11888;BME280;6003;42.756;23.130;2023-01-23T11:05:12;154182.34;;;6.89;100.00
11888;BME280;6003;42.756;23.130;2023-01-23T11:07:54;154161.25;;;6.81;100.00
11888;BME280;6003;42.756;23.130;2023-01-23T11:10:22;154211.34;;;7.00;100.00
11888;BME280;6003;42.756;23.130;2023-01-23T11:12:51;154182.34;;;6.89;100.00
11888;BME280;6003;42.756;23.130;2023-01-23T11:15:21;154178.34;;;6.87;100.00
11888;BME280;6003;42.756;23.130;2023-01-23T11:17:48;154162.56;;;6.81;100.00
11888;BME280;6003;42.756;23.130;2023-01-23T11:20:26;154134.91;;;6.70;100.00
11888;BME280;6003;42.756;23.130;2023-01-23T11:23:02;154092.72;;;6.54;100.00
11888;BME280;6003;42.756;23.130;2023-01-23T11:25:32;154054.53;;;6.39;100.00
11888;BME280;6003;42.756;23.130;2023-01-23T11:28:00;154033.44;;;6.31;100.00
11888;BME280;6003;42.756;23.130;2023-01-23T11:30:36;154037.38;;;6.32;100.00
11888;BME280;6003;42.756;23.130;2023-01-23T11:33:16;154036.06;;;6.32;100.00
11888;BME280;6003;42.756;23.130;2023-01-23T11:35:52;154028.16;;;6.29;100.00
11888;BME280;6003;42.756;23.130;2023-01-23T11:38:25;154055.84;;;6.40;100.00
11888;BME280;6003;42.756;23.130;2023-01-23T11:40:53;154066.34;;;6.44;100.00
11888;BME280;6003;42.756;23.130;2023-01-23T11:43:20;154061.13;;;6.42;100.00
11888;BME280;6003;42.756;23.130;2023-01-23T11:46:05;154037.38;;;6.32;100.00
11888;BME280;6003;42.756;23.130;2023-01-23T11:48:55;154066.34;;;6.44;100.00
11888;BME280;6003;42.756;23.130;2023-01-23T11:51:32;154074.25;;;6.47;100.00
11888;BME280;6003;42.756;23.130;2023-01-23T11:54:13;154025.56;;;6.28;100.00
11888;BME280;6003;42.756;23.130;2023-01-23T11:57:00;153976.78;;;6.09;100.00
11888;BME280;6003;42.756;23.130;2023-01-23T11:59:59;153997.88;;;6.17;100.00
11888;BME280;6003;42.756;23.130;2023-01-23T12:03:03;154000.50;;;6.18;100.00
11888;BME280;6003;42.756;23.130;2023-01-23T12:06:08;153999.19;;;6.18;100.00
11888;BME280;6003;42.756;23.130;2023-01-23T12:08:46;154008.41;;;6.21;100.00
11888;BME280;6003;42.756;23.130;2023-01-23T12:11:17;154026.84;;;6.28;100.00
11888;BME280;6003;42.756;23.130;2023-01-23T12:13:55;154045.28;;;6.36;100.00
11888;BME280;6003;42.756;23.130;2023-01-23T12:16:32;154036.06;;;6.32;100.00
11888;BME280;6003;42.756;23.130;2023-01-23T12:19:12;153984.69;;;6.12;100.00
11888;BME280;6003;42.756;23.130;2023-01-23T12:21:49;153984.69;;;6.12;100.00
11888;BME280;6003;42.756;23.130;2023-01-23T12:24:34;153950.47;;;5.99;100.00
11888;BME280;6003;42.756;23.130;2023-01-23T12:27:11;153930.66;;;5.91;100.00
11888;BME280;6003;42.756;23.130;2023-01-23T12:30:00;153925.38;;;5.89;100.00
11888;BME280;6003;42.756;23.130;2023-01-23T12:32:43;153905.66;;;5.81;100.00
11888;BME280;6003;42.756;23.130;2023-01-23T12:35:26;153921.47;;;5.87;100.00
11888;BME280;6003;42.756;23.130;2023-01-23T12:38:10;153913.56;;;5.84;100.00
11888;BME280;6003;42.756;23.130;2023-01-23T12:40:47;153926.69;;;5.89;100.00
11888;BME280;6003;42.756;23.130;2023-01-23T12:43:20;153908.28;;;5.82;100.00
11888;BME280;6003;42.756;23.130;2023-01-23T12:45:52;153914.88;;;5.85;100.00
11888;BME280;6003;42.756;23.130;2023-01-23T12:48:26;153913.56;;;5.84;100.00
11888;BME280;6003;42.756;23.130;2023-01-23T12:51:00;153913.56;;;5.84;100.00
11888;BME280;6003;42.756;23.130;2023-01-23T12:53:32;153904.31;;;5.81;100.00
11888;BME280;6003;42.756;23.130;2023-01-23T12:56:06;153901.69;;;5.80;100.00
11888;BME280;6003;42.756;23.130;2023-01-23T12:58:39;153895.09;;;5.77;100.00
11888;BME280;6003;42.756;23.130;2023-01-23T13:01:14;153866.13;;;5.66;100.00
11888;BME280;6003;42.756;23.130;2023-01-23T13:03:55;153876.69;;;5.70;100.00
11888;BME280;6003;42.756;23.130;2023-01-23T13:06:37;153903.00;;;5.80;100.00
11888;BME280;6003;42.756;23.130;2023-01-23T13:09:12;153895.09;;;5.77;100.00
11888;BME280;6003;42.756;23.130;2023-01-23T13:11:59;153895.09;;;5.77;100.00
11888;BME280;6003;42.756;23.130;2023-01-23T13:14:37;153899.06;;;5.79;100.00
11888;BME280;6003;42.756;23.130;2023-01-23T13:17:34;153900.38;;;5.79;100.00